createdAt,value
2018-12-16T00:00:13.823Z,53.73
2018-12-16T00:02:19.275Z,53.46
2018-12-16T00:04:25.397Z,53.06
2018-12-16T00:06:31.197Z,53.39
2018-12-16T00:08:36.400Z,52.98
2018-12-16T00:10:42.825Z,52.98
2018-12-16T00:12:47.730Z,53.16
2018-12-16T00:14:53.675Z,53.17
2018-12-16T00:16:58.687Z,52.84
2018-12-16T00:19:04.761Z,52.58
2018-12-16T00:21:10.654Z,52.80
2018-12-16T00:23:15.543Z,52.74
2018-12-16T00:25:21.706Z,52.75
2018-12-16T00:27:27.398Z,52.43
2018-12-16T00:29:33.817Z,52.30
2018-12-16T00:31:39.943Z,52.72
2018-12-16T00:33:46.939Z,52.09
2018-12-16T00:35:53.002Z,52.56
2018-12-16T00:37:58.000Z,52.70
2018-12-16T00:40:03.564Z,52.85
2018-12-16T00:42:09.862Z,52.38
2018-12-16T00:44:15.125Z,53.06
2018-12-16T00:46:20.456Z,52.55
2018-12-16T00:48:25.510Z,52.82
2018-12-16T00:50:30.642Z,52.57
2018-12-16T00:52:36.731Z,52.97
2018-12-16T00:54:42.472Z,52.82
2018-12-16T00:56:48.078Z,53.38
2018-12-16T00:58:53.329Z,53.49
2018-12-16T01:00:58.850Z,53.12
2018-12-16T01:03:04.202Z,52.59
2018-12-16T01:05:10.969Z,52.61
2018-12-16T01:07:17.080Z,53.34
2018-12-16T01:09:22.086Z,53.01
2018-12-16T01:11:27.058Z,52.79
2018-12-16T01:13:31.948Z,52.53
2018-12-16T01:15:37.650Z,52.63
2018-12-16T01:17:43.635Z,53.05
2018-12-16T01:19:49.361Z,52.48
2018-12-16T01:21:54.439Z,52.50
2018-12-16T01:23:59.456Z,52.64
2018-12-16T01:26:04.358Z,53.03
2018-12-16T01:28:09.445Z,52.66
2018-12-16T01:30:14.664Z,53.10
2018-12-16T01:32:20.623Z,53.01
2018-12-16T01:34:25.890Z,52.63
2018-12-16T01:36:31.694Z,52.86
2018-12-16T01:38:37.529Z,53.10
2018-12-16T01:40:42.647Z,53.22
2018-12-16T01:42:48.745Z,52.93
2018-12-16T01:44:54.303Z,53.23
2018-12-16T01:46:59.554Z,52.89
2018-12-16T01:49:05.365Z,53.80
2018-12-16T01:51:11.107Z,53.36
2018-12-16T01:53:16.120Z,53.48
2018-12-16T01:55:21.071Z,53.29
2018-12-16T01:57:27.362Z,53.97
2018-12-16T01:59:33.647Z,53.73
2018-12-16T02:01:40.810Z,53.90
2018-12-16T02:03:46.982Z,54.42
2018-12-16T02:05:52.333Z,54.61
2018-12-16T02:07:57.410Z,55.37
2018-12-16T02:10:02.929Z,56.32
2018-12-16T02:12:08.081Z,57.74
2018-12-16T02:14:14.940Z,59.12
2018-12-16T02:16:21.549Z,62.07
2018-12-16T02:18:26.645Z,63.14
2018-12-16T02:20:31.673Z,63.46
2018-12-16T02:22:38.613Z,63.99
2018-12-16T02:24:44.484Z,64.41
2018-12-16T02:26:49.516Z,64.77
2018-12-16T02:28:55.586Z,65.03
2018-12-16T02:31:00.793Z,65.12
2018-12-16T02:33:06.299Z,65.73
2018-12-16T02:35:12.347Z,66.71
2018-12-16T02:37:18.104Z,66.61
2018-12-16T02:39:22.938Z,67.21
2018-12-16T02:41:28.074Z,67.26
2018-12-16T02:43:33.135Z,67.78
2018-12-16T02:45:38.705Z,67.19
2018-12-16T02:47:46.051Z,67.52
2018-12-16T02:49:51.369Z,67.88
2018-12-16T02:51:56.860Z,68.29
2018-12-16T02:54:01.892Z,67.99
2018-12-16T02:56:07.112Z,67.99
2018-12-16T02:58:12.308Z,67.03
2018-12-16T03:00:18.222Z,67.97
2018-12-16T03:02:23.240Z,67.39
2018-12-16T03:04:30.114Z,67.43
2018-12-16T03:06:36.449Z,68.60
2018-12-16T03:08:41.775Z,68.91
2018-12-16T03:10:46.805Z,68.11
2018-12-16T03:12:51.941Z,67.69
2018-12-16T03:14:56.968Z,67.85
2018-12-16T03:17:02.079Z,68.03
2018-12-16T03:19:07.090Z,67.02
2018-12-16T03:21:12.067Z,67.54
2018-12-16T03:23:17.152Z,67.55
2018-12-16T03:25:22.397Z,67.36
2018-12-16T03:27:27.315Z,67.48
2018-12-16T03:29:32.761Z,67.56
2018-12-16T03:31:37.983Z,68.40
2018-12-16T03:33:43.112Z,68.83
2018-12-16T03:35:48.331Z,69.69
2018-12-16T03:37:53.471Z,69.05
2018-12-16T03:39:58.312Z,68.80
2018-12-16T03:42:03.270Z,69.11
2018-12-16T03:44:09.912Z,69.21
2018-12-16T03:46:14.962Z,69.42
2018-12-16T03:48:22.191Z,69.54
2018-12-16T03:50:27.256Z,70.23
2018-12-16T03:52:33.188Z,70.70
2018-12-16T03:54:38.130Z,70.98
2018-12-16T03:56:43.342Z,69.89
2018-12-16T03:59:04.849Z,70.12
2018-12-16T04:01:10.027Z,70.83
2018-12-16T04:03:14.963Z,70.70
2018-12-16T04:05:20.055Z,70.59
2018-12-16T04:07:25.349Z,70.62
2018-12-16T04:09:30.504Z,70.80
2018-12-16T04:11:35.655Z,70.92
2018-12-16T04:13:40.792Z,72.26
2018-12-16T04:18:01.877Z,72.32
2018-12-16T04:20:07.308Z,71.95
2018-12-16T04:22:12.122Z,72.65
2018-12-16T04:24:17.337Z,72.47
2018-12-16T04:26:23.388Z,73.37
2018-12-16T04:28:28.621Z,73.08
2018-12-16T04:30:35.201Z,73.59
2018-12-16T04:32:40.276Z,74.03
2018-12-16T04:34:45.268Z,73.98
2018-12-16T04:36:50.887Z,73.21
2018-12-16T04:38:55.876Z,73.71
2018-12-16T04:41:00.893Z,73.41
2018-12-16T04:43:06.021Z,73.15
2018-12-16T04:45:11.498Z,74.21
2018-12-16T04:47:16.476Z,75.15
2018-12-16T04:49:21.705Z,74.48
2018-12-16T04:51:27.235Z,74.91
2018-12-16T04:53:36.102Z,75.08
2018-12-16T04:55:39.938Z,74.58
2018-12-16T04:57:45.039Z,75.21
2018-12-16T04:59:49.938Z,74.92
2018-12-16T05:01:54.945Z,73.69
2018-12-16T05:04:00.082Z,74.07
2018-12-16T05:06:05.119Z,73.57
2018-12-16T05:08:10.193Z,73.81
2018-12-16T05:10:29.441Z,74.48
2018-12-16T05:12:34.269Z,74.40
2018-12-16T05:14:39.076Z,73.89
2018-12-16T05:16:43.951Z,72.51
2018-12-16T05:18:48.886Z,72.02
2018-12-16T05:20:54.214Z,73.17
2018-12-16T05:22:59.126Z,73.44
2018-12-16T05:25:04.008Z,73.51
2018-12-16T05:27:08.888Z,72.87
2018-12-16T05:29:13.912Z,73.04
2018-12-16T05:31:20.169Z,72.70
2018-12-16T05:33:25.652Z,71.99
2018-12-16T05:37:33.830Z,71.89
2018-12-16T05:39:38.866Z,71.51
2018-12-16T05:41:43.846Z,71.83
2018-12-16T05:43:48.588Z,72.39
2018-12-16T05:45:53.471Z,71.83
2018-12-16T05:47:58.378Z,72.44
2018-12-16T05:50:03.694Z,71.42
2018-12-16T05:52:09.235Z,71.78
2018-12-16T05:54:14.758Z,71.51
2018-12-16T05:56:19.788Z,71.60
2018-12-16T05:58:24.628Z,71.72
2018-12-16T06:00:29.558Z,71.50
2018-12-16T06:02:34.604Z,71.86
2018-12-16T06:04:40.524Z,71.42
2018-12-16T06:06:45.559Z,71.89
2018-12-16T06:08:50.461Z,71.57
2018-12-16T06:10:55.456Z,71.15
2018-12-16T06:13:00.397Z,71.35
2018-12-16T06:15:05.618Z,70.88
2018-12-16T06:17:11.690Z,71.37
2018-12-16T06:19:18.035Z,70.94
2018-12-16T06:21:24.252Z,71.62
2018-12-16T06:23:29.879Z,71.23
2018-12-16T06:25:35.264Z,71.52
2018-12-16T06:27:40.173Z,71.17
2018-12-16T06:29:45.561Z,71.01
2018-12-16T06:31:50.470Z,71.42
2018-12-16T06:33:56.315Z,70.57
2018-12-16T06:36:01.424Z,70.30
2018-12-16T06:38:07.520Z,69.95
2018-12-16T06:40:13.690Z,70.09
2018-12-16T06:42:19.605Z,70.83
2018-12-16T06:44:25.414Z,69.99
2018-12-16T06:46:30.994Z,70.15
2018-12-16T06:48:36.507Z,69.76
2018-12-16T06:50:42.412Z,69.69
2018-12-16T06:52:49.382Z,69.86
2018-12-16T06:54:54.714Z,70.25
2018-12-16T06:57:01.640Z,69.67
2018-12-16T06:59:07.540Z,69.39
2018-12-16T07:01:12.960Z,70.09
2018-12-16T07:03:17.933Z,69.85
2018-12-16T07:05:26.458Z,70.74
2018-12-16T07:07:31.407Z,69.96
2018-12-16T07:09:36.384Z,70.62
2018-12-16T07:11:41.551Z,70.10
2018-12-16T07:13:46.510Z,70.00
2018-12-16T07:15:51.357Z,69.96
2018-12-16T07:17:56.863Z,69.91
2018-12-16T07:20:02.672Z,69.11
2018-12-16T07:22:09.865Z,68.99
2018-12-16T07:24:15.123Z,69.22
2018-12-16T07:26:21.974Z,69.52
2018-12-16T07:28:27.159Z,69.21
2018-12-16T07:30:32.320Z,69.39
2018-12-16T07:32:37.678Z,69.70
2018-12-16T07:34:44.176Z,69.95
2018-12-16T07:36:49.226Z,69.43
2018-12-16T07:38:55.000Z,69.19
2018-12-16T07:41:00.423Z,68.30
2018-12-16T07:43:05.344Z,68.81
2018-12-16T07:45:10.567Z,69.15
2018-12-16T07:47:16.632Z,68.63
2018-12-16T07:49:21.687Z,68.73
2018-12-16T07:51:27.867Z,69.00
2018-12-16T07:53:33.938Z,69.17
2018-12-16T07:55:38.907Z,68.93
2018-12-16T07:57:46.549Z,68.51
2018-12-16T07:59:51.716Z,68.83
2018-12-16T08:01:57.284Z,68.55
2018-12-16T08:04:02.193Z,68.66
2018-12-16T08:06:07.370Z,68.61
2018-12-16T08:08:14.791Z,69.42
2018-12-16T08:10:20.141Z,68.80
2018-12-16T08:12:25.165Z,68.59
2018-12-16T08:14:30.864Z,68.54
2018-12-16T08:16:36.262Z,68.37
2018-12-16T08:18:41.989Z,68.11
2018-12-16T08:20:48.412Z,68.20
2018-12-16T08:22:54.328Z,68.96
2018-12-16T08:24:59.503Z,68.80
2018-12-16T08:27:05.550Z,68.95
2018-12-16T08:29:10.486Z,69.07
2018-12-16T08:31:15.624Z,69.52
2018-12-16T08:33:20.747Z,68.87
2018-12-16T08:35:26.043Z,68.67
2018-12-16T08:37:31.340Z,68.08
2018-12-16T08:39:37.033Z,67.12
2018-12-16T08:41:44.185Z,67.50
2018-12-16T08:43:49.123Z,67.56
2018-12-16T08:45:54.498Z,68.08
2018-12-16T08:48:00.142Z,68.32
2018-12-16T08:50:06.598Z,69.23
2018-12-16T08:52:11.660Z,69.15
2018-12-16T08:54:16.861Z,69.91
2018-12-16T08:56:23.700Z,69.45
2018-12-16T08:58:28.714Z,69.71
2018-12-16T09:00:33.913Z,68.87
2018-12-16T09:02:39.231Z,68.63
2018-12-16T09:04:44.351Z,68.81
2018-12-16T09:06:49.581Z,69.01
2018-12-16T09:08:55.373Z,69.77
2018-12-16T09:11:00.663Z,69.69
2018-12-16T09:13:05.793Z,70.01
2018-12-16T09:15:11.174Z,69.45
2018-12-16T09:17:16.933Z,68.95
2018-12-16T09:19:22.532Z,69.64
2018-12-16T09:21:27.882Z,69.65
2018-12-16T09:23:36.412Z,68.95
2018-12-16T09:25:41.403Z,68.90
2018-12-16T09:27:46.589Z,69.26
2018-12-16T09:29:59.951Z,68.20
2018-12-16T09:32:04.890Z,68.58
2018-12-16T09:34:10.187Z,68.98
2018-12-16T09:54:26.341Z,69.75
2018-12-16T09:56:31.410Z,69.76
2018-12-16T09:58:36.287Z,69.96
2018-12-16T10:00:41.566Z,70.25
2018-12-16T10:02:46.776Z,70.39
2018-12-16T10:04:51.698Z,69.92
2018-12-16T10:06:57.147Z,70.42
2018-12-16T10:09:02.452Z,69.99
2018-12-16T10:11:08.221Z,69.14
2018-12-16T10:13:13.387Z,68.56
2018-12-16T10:33:24.878Z,68.87
2018-12-16T10:35:30.070Z,69.68
2018-12-16T10:37:36.178Z,69.83
2018-12-16T10:39:43.050Z,69.06
2018-12-16T10:41:49.103Z,69.19
2018-12-16T10:43:54.714Z,68.79
2018-12-16T10:46:01.048Z,69.26
2018-12-16T10:48:07.066Z,68.83
2018-12-16T10:50:12.526Z,68.63
2018-12-16T11:10:07.599Z,68.51
2018-12-16T11:12:13.966Z,70.36
2018-12-16T11:14:19.355Z,70.51
2018-12-16T11:16:24.594Z,69.35
2018-12-16T11:18:30.025Z,69.64
2018-12-16T11:20:35.346Z,68.84
2018-12-16T11:22:40.660Z,68.85
2018-12-16T11:24:47.646Z,68.91
2018-12-16T11:26:53.114Z,68.88
2018-12-16T11:28:59.064Z,68.99
2018-12-16T11:31:04.375Z,69.69
2018-12-16T11:33:10.122Z,69.09
2018-12-16T11:35:15.332Z,69.76
2018-12-16T11:37:21.130Z,69.94
2018-12-16T11:39:28.911Z,69.93
2018-12-16T11:41:35.803Z,69.92
2018-12-16T11:43:47.428Z,70.13
2018-12-16T11:45:55.016Z,69.61
2018-12-16T11:48:03.758Z,69.86
2018-12-16T11:50:10.278Z,68.73
2018-12-16T11:52:15.647Z,69.64
2018-12-16T11:54:22.037Z,70.61
2018-12-16T11:56:28.219Z,70.20
2018-12-16T11:58:33.756Z,70.86
2018-12-16T12:03:24.386Z,70.53
2018-12-16T12:05:33.424Z,70.99
2018-12-16T12:07:44.662Z,70.92
2018-12-16T12:09:50.357Z,70.55
2018-12-16T12:11:56.487Z,70.82
2018-12-16T12:14:01.879Z,70.87
2018-12-16T12:16:07.804Z,71.24
2018-12-16T12:18:13.207Z,72.26
2018-12-16T12:20:19.580Z,71.76
2018-12-16T12:22:24.983Z,71.72
2018-12-16T12:24:31.541Z,70.96
2018-12-16T12:26:37.436Z,70.78
2018-12-16T12:28:43.199Z,70.42
2018-12-16T12:30:48.380Z,71.28
2018-12-16T12:32:53.739Z,71.93
2018-12-16T12:34:59.079Z,71.26
2018-12-16T12:37:05.550Z,71.45
2018-12-16T12:39:13.205Z,71.07
2018-12-16T12:41:18.889Z,70.87
2018-12-16T12:43:25.253Z,71.72
2018-12-16T12:45:30.362Z,70.92
2018-12-16T12:47:35.934Z,71.16
2018-12-16T12:49:44.947Z,71.39
2018-12-16T12:51:48.500Z,70.64
2018-12-16T12:53:53.737Z,70.94
2018-12-16T12:56:00.061Z,71.16
2018-12-16T12:58:06.617Z,71.18
2018-12-16T13:00:15.356Z,71.52
2018-12-16T13:02:20.759Z,71.07
2018-12-16T13:04:26.113Z,70.94
2018-12-16T13:06:31.842Z,71.07
2018-12-16T13:08:38.471Z,70.97
2018-12-16T13:10:43.834Z,70.87
2018-12-16T13:12:49.294Z,71.10
2018-12-16T13:17:13.945Z,70.87
2018-12-16T13:19:19.290Z,71.16
2018-12-16T13:21:25.794Z,71.64
2018-12-16T13:23:32.921Z,71.21
2018-12-16T13:25:54.571Z,71.25
2018-12-16T13:27:59.723Z,70.71
2018-12-16T13:30:06.142Z,71.35
2018-12-16T13:32:11.673Z,71.02
2018-12-16T13:34:18.419Z,71.29
2018-12-16T13:36:29.258Z,71.59
2018-12-16T13:38:37.512Z,71.86
2018-12-16T13:40:47.102Z,70.63
2018-12-16T13:42:54.513Z,70.45
2018-12-16T13:44:59.683Z,70.41
2018-12-16T13:47:04.934Z,70.68
2018-12-16T13:49:11.466Z,69.58
2018-12-16T13:51:16.851Z,69.74
2018-12-16T13:53:22.231Z,69.76
2018-12-16T13:55:28.823Z,70.15
2018-12-16T13:57:35.382Z,70.34
2018-12-16T13:59:41.299Z,70.42
2018-12-16T14:01:46.907Z,70.42
2018-12-16T14:03:54.267Z,71.32
2018-12-16T14:05:59.640Z,70.94
2018-12-16T14:08:05.749Z,71.01
2018-12-16T14:28:17.331Z,71.51
2018-12-16T14:30:22.533Z,71.78
2018-12-16T14:32:27.941Z,72.18
2018-12-16T14:34:33.353Z,72.53
2018-12-16T14:36:38.931Z,72.77
2018-12-16T14:38:44.573Z,72.82
2018-12-16T14:40:50.207Z,73.64
2018-12-16T14:42:55.860Z,73.88
2018-12-16T14:45:01.207Z,74.03
2018-12-16T14:47:07.222Z,73.81
2018-12-16T14:49:12.897Z,73.62
2018-12-16T14:51:18.089Z,73.73
2018-12-16T14:53:23.502Z,73.82
2018-12-16T14:55:28.810Z,73.34
2018-12-16T14:57:34.063Z,73.93
2018-12-16T14:59:39.374Z,73.74
2018-12-16T15:01:44.518Z,73.33
2018-12-16T15:03:49.799Z,73.29
2018-12-16T15:05:55.258Z,74.19
2018-12-16T15:08:01.471Z,73.50
2018-12-16T15:10:10.974Z,73.88
2018-12-16T15:12:16.588Z,73.64
2018-12-16T15:14:22.122Z,73.68
2018-12-16T15:16:29.000Z,73.98
2018-12-16T15:18:34.530Z,73.87
2018-12-16T15:20:39.786Z,74.47
2018-12-16T15:22:45.029Z,74.06
2018-12-16T15:24:50.603Z,74.17
2018-12-16T15:26:55.955Z,74.54
2018-12-16T15:29:01.644Z,74.72
2018-12-16T15:31:07.597Z,74.53
2018-12-16T15:33:13.357Z,74.37
2018-12-16T15:35:18.543Z,74.40
2018-12-16T15:37:24.256Z,73.93
2018-12-16T15:39:29.880Z,74.33
2018-12-16T15:41:35.228Z,73.22
2018-12-16T15:43:40.669Z,73.54
2018-12-16T15:45:46.071Z,73.54
2018-12-16T15:47:51.256Z,73.68
2018-12-16T15:49:58.789Z,73.46
2018-12-16T15:52:04.679Z,73.20
2018-12-16T15:54:14.301Z,73.01
2018-12-16T15:56:19.611Z,73.60
2018-12-16T15:58:24.833Z,73.33
2018-12-16T16:00:29.823Z,73.09
2018-12-16T16:02:35.255Z,73.06
2018-12-16T16:04:40.980Z,73.43
2018-12-16T16:24:54.336Z,73.79
2018-12-16T16:26:59.934Z,74.03
2018-12-16T16:29:05.649Z,73.85
2018-12-16T16:31:12.391Z,74.69
2018-12-16T16:33:19.099Z,73.72
2018-12-16T16:35:25.359Z,73.77
2018-12-16T16:37:30.770Z,73.94
2018-12-16T16:39:36.218Z,74.10
2018-12-16T16:41:42.150Z,74.24
2018-12-16T16:43:47.903Z,74.89
2018-12-16T16:45:53.503Z,74.59
2018-12-16T16:47:59.709Z,74.10
2018-12-16T16:50:06.077Z,73.83
2018-12-16T16:54:34.743Z,74.55
2018-12-16T16:56:40.327Z,74.06
2018-12-16T16:58:45.725Z,73.41
2018-12-16T17:00:53.467Z,73.74
2018-12-16T17:03:00.683Z,73.91
2018-12-16T17:05:06.527Z,73.97
2018-12-16T17:07:13.604Z,73.60
2018-12-16T17:09:18.829Z,73.35
2018-12-16T17:13:49.737Z,74.17
2018-12-16T17:15:55.767Z,73.98
2018-12-16T17:18:01.073Z,74.13
2018-12-16T17:20:07.535Z,74.07
2018-12-16T17:22:14.932Z,74.00
2018-12-16T17:24:23.018Z,73.59
2018-12-16T17:26:30.380Z,73.98
2018-12-16T17:28:36.383Z,73.41
2018-12-16T17:30:43.138Z,73.30
2018-12-16T17:32:49.004Z,73.20
2018-12-16T17:34:54.378Z,73.23
2018-12-16T17:36:59.949Z,72.93
2018-12-16T17:39:08.238Z,73.18
2018-12-16T17:41:14.059Z,73.63
2018-12-16T17:43:19.583Z,74.03
2018-12-16T18:03:32.364Z,73.76
2018-12-16T18:23:49.615Z,73.66
2018-12-16T18:25:59.403Z,73.38
2018-12-16T18:28:09.032Z,72.62
2018-12-16T18:30:15.440Z,73.42
2018-12-16T18:32:22.689Z,73.93
2018-12-16T18:34:30.733Z,73.71
2018-12-16T18:36:43.118Z,73.86
2018-12-16T18:38:55.650Z,73.41
2018-12-16T18:41:05.344Z,72.74
2018-12-16T18:43:12.341Z,73.23
2018-12-16T18:45:28.785Z,72.89
2018-12-16T18:47:35.537Z,73.05
2018-12-16T18:52:04.044Z,73.37
2018-12-16T18:54:13.590Z,73.79
2018-12-16T18:56:19.647Z,73.30
2018-12-16T18:58:31.634Z,72.72
2018-12-16T19:00:37.927Z,73.10
2018-12-16T19:02:46.931Z,72.93
2018-12-16T19:04:53.646Z,73.40
2018-12-16T19:06:58.998Z,73.60
2018-12-16T19:09:08.539Z,73.62
2018-12-16T19:11:20.305Z,73.15
2018-12-16T19:13:29.042Z,73.47
2018-12-16T19:15:39.970Z,73.50
2018-12-16T19:17:50.469Z,73.63
2018-12-16T19:19:59.988Z,73.67
2018-12-16T19:22:10.057Z,73.57
2018-12-16T19:24:24.371Z,73.93
2018-12-16T19:26:37.755Z,74.23
2018-12-16T19:28:47.580Z,73.57
2018-12-16T19:31:04.607Z,73.62
2018-12-16T19:33:15.245Z,72.73
2018-12-16T19:35:28.298Z,72.90
2018-12-16T19:37:34.853Z,73.20
2018-12-16T19:57:47.919Z,73.73
2018-12-16T19:59:54.902Z,73.83
2018-12-16T20:02:01.702Z,73.51
2018-12-16T20:04:23.371Z,73.66
2018-12-16T20:06:34.629Z,73.74
2018-12-16T20:08:43.460Z,73.69
2018-12-16T20:10:54.507Z,74.47
2018-12-16T20:13:03.657Z,74.59
2018-12-16T20:15:10.580Z,74.46
2018-12-16T20:17:20.752Z,74.41
2018-12-16T20:19:26.933Z,74.93
2018-12-16T20:21:42.213Z,74.85
2018-12-16T20:23:51.907Z,74.94
2018-12-16T20:25:59.495Z,75.31
2018-12-16T20:28:12.205Z,75.61
2018-12-16T20:30:19.556Z,76.12
2018-12-16T20:32:28.771Z,75.64
2018-12-16T20:34:39.732Z,75.93
2018-12-16T20:36:47.656Z,75.90
2018-12-16T20:57:00.544Z,76.07
2018-12-16T20:59:14.793Z,76.12
2018-12-16T21:01:27.109Z,76.25
2018-12-16T21:03:39.086Z,75.57
2018-12-16T21:05:52.519Z,76.00
2018-12-16T21:26:22.942Z,75.04
2018-12-16T21:28:28.610Z,74.14
2018-12-16T21:30:36.050Z,74.53
2018-12-16T21:32:46.231Z,74.66
2018-12-16T21:37:38.523Z,73.81
2018-12-16T21:40:04.572Z,74.15
2018-12-16T21:42:13.605Z,74.96
2018-12-16T21:44:44.517Z,74.99
2018-12-16T21:46:50.695Z,75.49
2018-12-16T21:49:00.319Z,75.47
2018-12-16T21:51:13.007Z,75.66
2018-12-16T21:53:20.036Z,76.00
2018-12-16T21:55:28.997Z,76.22
2018-12-16T21:57:36.597Z,75.89
2018-12-16T21:59:45.088Z,76.43
2018-12-16T22:01:52.189Z,76.53
2018-12-16T22:03:58.098Z,76.22
2018-12-16T22:06:05.476Z,76.86
2018-12-16T22:08:11.319Z,76.68
2018-12-16T22:10:19.229Z,76.58
2018-12-16T22:12:24.701Z,76.38
2018-12-16T22:17:14.731Z,77.01
2018-12-16T22:19:20.503Z,77.00
2018-12-16T22:21:26.750Z,76.97
2018-12-16T22:23:31.887Z,77.04
2018-12-16T22:25:37.009Z,77.77
2018-12-16T22:27:42.727Z,77.59
2018-12-16T22:29:47.826Z,77.16
2018-12-16T22:31:53.680Z,77.47
2018-12-16T22:33:59.107Z,77.83
2018-12-16T22:36:04.244Z,77.97
2018-12-16T22:38:09.551Z,77.52
2018-12-16T22:40:15.124Z,78.14
2018-12-16T22:42:24.707Z,78.56
2018-12-16T22:44:31.287Z,78.23
2018-12-16T22:46:37.442Z,78.29
2018-12-16T22:48:42.833Z,78.28
2018-12-16T22:50:50.683Z,78.64
2018-12-16T22:53:05.269Z,78.64
2018-12-16T22:55:17.607Z,78.93
2018-12-16T22:57:24.013Z,78.96
2018-12-16T22:59:29.188Z,79.27
2018-12-16T23:01:35.047Z,79.32
2018-12-16T23:03:40.483Z,79.10
2018-12-16T23:05:45.498Z,79.71
2018-12-16T23:07:57.428Z,79.51
2018-12-16T23:10:02.843Z,79.37
2018-12-16T23:12:08.032Z,79.50
2018-12-16T23:14:13.095Z,79.65
2018-12-16T23:16:18.479Z,79.34
2018-12-16T23:18:23.613Z,79.35
2018-12-16T23:20:29.678Z,79.46
2018-12-16T23:22:34.994Z,79.22
2018-12-16T23:24:41.297Z,78.90
2018-12-16T23:26:46.268Z,78.87
2018-12-16T23:28:51.313Z,78.53
2018-12-16T23:30:57.765Z,77.95
2018-12-16T23:33:02.963Z,77.97
2018-12-16T23:35:25.106Z,77.92
2018-12-16T23:37:30.566Z,77.93
2018-12-16T23:39:35.996Z,77.95
2018-12-16T23:41:41.747Z,77.58
2018-12-16T23:43:50.246Z,77.59
2018-12-16T23:45:56.238Z,77.92
2018-12-16T23:48:01.283Z,77.82
2018-12-16T23:50:08.196Z,77.99
2018-12-16T23:52:13.271Z,77.79
2018-12-16T23:54:18.538Z,77.82
2018-12-16T23:56:24.214Z,77.85
2018-12-16T23:58:29.513Z,77.85
